createdAt,value
2019-04-07T00:01:10.221Z,3.30
2019-04-07T00:02:42.986Z,3.97
2019-04-07T00:04:15.831Z,4.57
2019-04-07T00:05:48.305Z,3.50
2019-04-07T00:07:20.651Z,5.93
2019-04-07T00:08:53.575Z,3.57
2019-04-07T00:10:26.169Z,4.37
2019-04-07T00:11:59.087Z,4.27
2019-04-07T00:13:31.690Z,4.00
2019-04-07T00:15:04.806Z,3.30
2019-04-07T00:16:37.359Z,5.30
2019-04-07T00:18:10.361Z,5.17
2019-04-07T00:19:42.892Z,3.47
2019-04-07T00:21:15.281Z,4.80
2019-04-07T00:22:47.734Z,3.70
2019-04-07T00:24:20.065Z,7.70
2019-04-07T00:25:52.419Z,3.87
2019-04-07T00:27:24.850Z,3.47
2019-04-07T00:28:57.781Z,3.80
2019-04-07T00:30:30.335Z,3.90
2019-04-07T00:32:02.866Z,3.97
2019-04-07T00:33:35.377Z,3.53
2019-04-07T00:35:07.725Z,3.53
2019-04-07T00:36:40.114Z,3.83
2019-04-07T00:38:12.726Z,3.47
2019-04-07T00:39:45.189Z,4.03
2019-04-07T00:41:17.661Z,3.23
2019-04-07T00:42:50.216Z,3.53
2019-04-07T00:44:22.612Z,3.23
2019-04-07T00:45:55.107Z,3.60
2019-04-07T00:47:27.510Z,6.60
2019-04-07T00:49:00.304Z,4.50
2019-04-07T00:50:33.303Z,3.47
2019-04-07T00:52:06.149Z,3.93
2019-04-07T00:53:39.352Z,3.77
2019-04-07T00:55:11.900Z,3.17
2019-04-07T00:56:44.325Z,3.63
2019-04-07T00:58:16.682Z,3.47
2019-04-07T00:59:49.098Z,4.43
2019-04-07T01:01:21.712Z,3.97
2019-04-07T01:02:54.258Z,3.90
2019-04-07T01:04:26.687Z,4.50
2019-04-07T01:05:59.146Z,4.20
2019-04-07T01:07:31.470Z,4.13
2019-04-07T01:09:04.480Z,3.37
2019-04-07T01:10:36.991Z,2.93
2019-04-07T01:12:09.431Z,4.53
2019-04-07T01:13:41.789Z,3.33
2019-04-07T01:15:14.227Z,3.30
2019-04-07T01:16:47.133Z,4.53
2019-04-07T01:18:19.655Z,3.03
2019-04-07T01:19:52.053Z,3.37
2019-04-07T01:21:24.954Z,4.37
2019-04-07T01:22:57.487Z,4.20
2019-04-07T01:24:29.954Z,5.57
2019-04-07T01:26:02.294Z,4.07
2019-04-07T01:27:34.786Z,4.37
2019-04-07T01:29:07.282Z,3.67
2019-04-07T01:30:40.381Z,4.73
2019-04-07T01:32:12.858Z,4.10
2019-04-07T01:33:45.354Z,4.47
2019-04-07T01:35:17.752Z,3.43
2019-04-07T01:36:50.152Z,4.73
2019-04-07T01:38:22.609Z,3.83
2019-04-07T01:39:54.954Z,3.60
2019-04-07T01:41:27.527Z,2.83
2019-04-07T01:43:00.082Z,3.77
2019-04-07T01:44:33.386Z,3.27
2019-04-07T01:46:06.385Z,3.50
2019-04-07T01:47:38.866Z,5.20
2019-04-07T01:49:11.738Z,5.97
2019-04-07T01:50:45.081Z,3.47
2019-04-07T01:52:18.208Z,3.47
2019-04-07T01:53:51.003Z,5.00
2019-04-07T01:55:23.629Z,3.77
2019-04-07T01:56:56.146Z,3.07
2019-04-07T01:58:28.570Z,3.80
2019-04-07T02:00:01.050Z,8.00
2019-04-07T02:01:33.881Z,3.57
2019-04-07T02:03:06.408Z,4.13
2019-04-07T02:04:38.987Z,6.07
2019-04-07T02:06:11.759Z,5.10
2019-04-07T02:07:44.579Z,5.30
2019-04-07T02:09:17.124Z,4.50
2019-04-07T02:10:49.625Z,3.43
2019-04-07T02:12:22.382Z,3.57
2019-04-07T02:13:55.783Z,3.67
2019-04-07T02:15:28.366Z,4.30
2019-04-07T02:17:00.905Z,6.43
2019-04-07T02:18:33.427Z,3.90
2019-04-07T02:20:05.774Z,4.47
2019-04-07T02:21:38.122Z,4.07
2019-04-07T02:23:10.534Z,4.40
2019-04-07T02:24:43.821Z,5.23
2019-04-07T02:26:16.356Z,4.13
2019-04-07T02:27:49.492Z,5.43
2019-04-07T02:29:22.147Z,4.10
2019-04-07T02:30:54.680Z,4.57
2019-04-07T02:32:27.809Z,4.90
2019-04-07T02:34:00.452Z,4.60
2019-04-07T02:35:32.891Z,4.10
2019-04-07T02:37:06.617Z,3.90
2019-04-07T02:38:39.174Z,5.30
2019-04-07T02:40:11.851Z,4.77
2019-04-07T02:41:44.480Z,5.87
2019-04-07T02:43:17.862Z,5.90
2019-04-07T02:44:50.849Z,4.50
2019-04-07T02:46:24.060Z,5.05
2019-04-07T02:47:57.570Z,4.47
2019-04-07T02:49:30.389Z,4.20
2019-04-07T02:51:03.122Z,5.20
2019-04-07T02:52:35.768Z,4.93
2019-04-07T02:54:09.352Z,7.53
2019-04-07T02:55:42.242Z,5.33
2019-04-07T02:57:15.182Z,4.27
2019-04-07T02:58:47.745Z,4.33
2019-04-07T03:00:20.541Z,4.80
2019-04-07T03:01:52.990Z,7.40
2019-04-07T03:03:25.469Z,5.93
2019-04-07T03:04:58.578Z,5.43
2019-04-07T03:06:39.314Z,5.83
2019-04-07T03:08:05.736Z,5.37
2019-04-07T03:09:38.447Z,4.27
2019-04-07T03:11:10.902Z,7.07
2019-04-07T03:12:43.458Z,4.17
2019-04-07T03:14:16.010Z,5.67
2019-04-07T03:15:48.491Z,5.43
2019-04-07T03:17:21.027Z,4.73
2019-04-07T03:18:53.383Z,4.73
2019-04-07T03:20:25.815Z,7.10
2019-04-07T03:21:58.232Z,6.00
2019-04-07T03:23:31.615Z,5.77
2019-04-07T03:25:04.225Z,5.47
2019-04-07T03:26:38.332Z,5.33
2019-04-07T03:28:10.776Z,4.87
2019-04-07T03:29:51.853Z,5.10
2019-04-07T03:31:24.395Z,5.03
2019-04-07T03:32:58.044Z,6.57
2019-04-07T03:34:33.398Z,6.73
2019-04-07T03:36:06.844Z,5.97
2019-04-07T03:37:44.314Z,4.83
2019-04-07T03:39:13.070Z,6.07
2019-04-07T03:40:46.304Z,5.40
2019-04-07T03:42:18.869Z,4.90
2019-04-07T03:43:51.343Z,6.30
2019-04-07T03:45:23.694Z,4.87
2019-04-07T03:46:57.054Z,4.80
2019-04-07T03:48:30.399Z,5.87
2019-04-07T03:50:03.384Z,4.90
2019-04-07T03:51:36.411Z,5.60
2019-04-07T03:53:10.058Z,5.03
2019-04-07T03:54:43.338Z,9.33
2019-04-07T03:56:15.965Z,5.67
2019-04-07T03:57:49.275Z,7.27
2019-04-07T03:59:21.838Z,5.13
2019-04-07T04:00:55.105Z,5.60
2019-04-07T04:02:27.937Z,5.70
2019-04-07T04:04:00.691Z,5.63
2019-04-07T04:05:34.117Z,5.33
2019-04-07T04:07:20.702Z,5.07
2019-04-07T04:08:41.698Z,5.63
2019-04-07T04:10:14.326Z,5.73
2019-04-07T04:11:47.016Z,6.43
2019-04-07T04:13:20.099Z,5.23
2019-04-07T04:14:52.763Z,5.77
2019-04-07T04:16:25.776Z,6.57
2019-04-07T04:17:58.288Z,6.20
2019-04-07T04:19:30.776Z,5.33
2019-04-07T04:21:03.568Z,5.00
2019-04-07T04:22:36.118Z,6.70
2019-04-07T04:24:08.587Z,7.20
2019-04-07T04:25:40.989Z,5.43
2019-04-07T04:27:13.414Z,6.10
2019-04-07T04:28:46.221Z,6.57
2019-04-07T04:30:18.955Z,7.00
2019-04-07T04:31:51.357Z,8.53
2019-04-07T04:33:23.767Z,4.50
2019-04-07T04:34:56.248Z,6.07
2019-04-07T04:36:29.421Z,6.23
2019-04-07T04:38:02.112Z,6.63
2019-04-07T04:39:35.344Z,5.97
2019-04-07T04:41:07.921Z,5.73
2019-04-07T04:42:40.834Z,6.20
2019-04-07T04:44:14.301Z,5.03
2019-04-07T04:45:46.791Z,7.57
2019-04-07T04:47:19.191Z,5.27
2019-04-07T04:48:52.427Z,6.73
2019-04-07T04:50:25.839Z,7.60
2019-04-07T04:51:58.703Z,7.30
2019-04-07T04:53:32.019Z,5.87
2019-04-07T04:55:04.600Z,9.33
2019-04-07T04:56:37.349Z,11.70
2019-04-07T04:58:11.206Z,5.87
2019-04-07T04:59:44.258Z,5.87
2019-04-07T05:01:17.477Z,10.07
2019-04-07T05:02:49.958Z,5.80
2019-04-07T05:04:22.953Z,6.30
2019-04-07T05:05:56.303Z,7.43
2019-04-07T05:07:28.944Z,5.87
2019-04-07T05:09:02.133Z,6.33
2019-04-07T05:10:34.840Z,6.53
2019-04-07T05:12:07.442Z,7.37
2019-04-07T05:13:39.861Z,4.90
2019-04-07T05:15:13.043Z,5.57
2019-04-07T05:16:45.699Z,5.30
2019-04-07T05:18:18.043Z,6.50
2019-04-07T05:19:50.971Z,6.83
2019-04-07T05:21:24.004Z,7.47
2019-04-07T05:22:56.445Z,6.30
2019-04-07T05:24:28.867Z,6.03
2019-04-07T05:26:01.266Z,5.30
2019-04-07T05:27:33.747Z,10.20
2019-04-07T05:29:06.172Z,4.77
2019-04-07T05:30:39.155Z,9.00
2019-04-07T05:32:12.227Z,5.37
2019-04-07T05:33:45.133Z,5.70
2019-04-07T05:35:17.625Z,6.37
2019-04-07T05:36:50.007Z,5.90
2019-04-07T05:38:22.500Z,5.13
2019-04-07T05:39:55.045Z,6.33
2019-04-07T05:41:27.410Z,6.27
2019-04-07T05:42:59.956Z,7.80
2019-04-07T05:44:32.306Z,7.03
2019-04-07T05:46:06.986Z,7.67
2019-04-07T05:47:40.859Z,8.80
2019-04-07T05:49:15.792Z,8.63
2019-04-07T05:50:47.286Z,5.90
2019-04-07T05:52:19.786Z,5.93
2019-04-07T05:53:52.655Z,5.67
2019-04-07T05:55:25.074Z,5.83
2019-04-07T05:57:01.212Z,6.53
2019-04-07T05:58:32.235Z,6.70
2019-04-07T06:00:04.721Z,5.10
2019-04-07T06:01:37.310Z,5.90
2019-04-07T06:03:09.720Z,5.97
2019-04-07T06:04:46.857Z,7.80
2019-04-07T06:06:20.198Z,6.77
2019-04-07T06:07:52.766Z,7.97
2019-04-07T06:09:25.249Z,8.37
2019-04-07T06:11:01.289Z,5.90
2019-04-07T06:12:32.619Z,5.67
2019-04-07T06:14:05.746Z,6.50
2019-04-07T06:15:38.314Z,6.73
2019-04-07T06:17:10.849Z,6.67
2019-04-07T06:18:44.420Z,8.57
2019-04-07T06:20:24.749Z,8.53
2019-04-07T06:21:57.969Z,8.60
2019-04-07T06:23:30.981Z,8.97
2019-04-07T06:25:04.613Z,7.20
2019-04-07T06:26:41.511Z,7.30
2019-04-07T06:28:13.929Z,7.03
2019-04-07T06:29:45.711Z,6.33
2019-04-07T06:31:18.389Z,8.70
2019-04-07T06:32:51.570Z,6.40
2019-04-07T06:34:26.940Z,6.33
2019-04-07T06:35:59.607Z,7.30
2019-04-07T06:37:33.331Z,7.97
2019-04-07T06:39:05.763Z,6.67
2019-04-07T06:40:38.096Z,7.43
2019-04-07T06:42:10.472Z,6.97
2019-04-07T06:43:43.014Z,10.77
2019-04-07T06:45:16.207Z,10.00
2019-04-07T06:46:49.177Z,8.27
2019-04-07T06:48:22.253Z,6.57
2019-04-07T06:49:54.831Z,8.17
2019-04-07T06:51:30.936Z,8.50
2019-04-07T06:53:02.226Z,9.07
2019-04-07T06:54:35.237Z,9.47
2019-04-07T06:56:08.876Z,7.23
2019-04-07T06:57:41.669Z,9.50
2019-04-07T06:59:15.546Z,7.70
2019-04-07T07:00:49.161Z,8.90
2019-04-07T07:02:22.543Z,12.70
2019-04-07T07:03:55.171Z,10.10
2019-04-07T07:05:27.931Z,9.70
2019-04-07T07:07:00.730Z,9.50
2019-04-07T07:08:42.641Z,7.73
2019-04-07T07:10:07.131Z,8.63
2019-04-07T07:11:42.811Z,7.60
2019-04-07T07:13:26.513Z,6.80
2019-04-07T07:14:47.968Z,10.50
2019-04-07T07:16:20.691Z,7.73
2019-04-07T07:17:56.149Z,8.07
2019-04-07T07:19:28.567Z,8.60
2019-04-07T07:21:03.157Z,7.97
2019-04-07T07:22:35.732Z,7.63
2019-04-07T07:24:08.159Z,9.63
2019-04-07T07:25:40.956Z,8.57
2019-04-07T07:27:14.191Z,8.07
2019-04-07T07:28:46.944Z,8.07
2019-04-07T07:30:20.352Z,9.53
2019-04-07T07:31:59.948Z,9.13
2019-04-07T07:33:28.113Z,8.80
2019-04-07T07:35:00.613Z,10.53
2019-04-07T07:36:33.778Z,7.20
2019-04-07T07:38:06.174Z,8.53
2019-04-07T07:39:41.850Z,11.63
2019-04-07T07:41:12.739Z,9.53
2019-04-07T07:42:45.831Z,7.90
2019-04-07T07:44:19.983Z,8.53
2019-04-07T07:45:52.666Z,9.77
2019-04-07T07:47:25.370Z,10.33
2019-04-07T07:49:01.080Z,10.40
2019-04-07T07:50:31.966Z,10.97
2019-04-07T07:52:04.931Z,9.10
2019-04-07T07:53:38.323Z,8.93
2019-04-07T07:55:11.009Z,9.90
2019-04-07T07:56:48.561Z,7.80
2019-04-07T07:58:18.193Z,9.70
2019-04-07T07:59:50.975Z,9.07
2019-04-07T08:01:23.509Z,10.13
2019-04-07T08:02:56.139Z,8.90
2019-04-07T08:04:29.143Z,8.70
2019-04-07T08:06:04.819Z,10.70
2019-04-07T08:07:35.910Z,12.90
2019-04-07T08:09:13.828Z,14.77
2019-04-07T08:10:42.700Z,7.50
2019-04-07T08:12:16.111Z,8.73
2019-04-07T08:13:48.839Z,12.77
2019-04-07T08:15:25.431Z,10.43
2019-04-07T08:16:55.685Z,9.40
2019-04-07T08:18:28.554Z,10.07
2019-04-07T08:20:01.108Z,9.63
2019-04-07T08:21:33.750Z,9.63
2019-04-07T08:23:06.859Z,10.37
2019-04-07T08:24:39.422Z,9.03
2019-04-07T08:26:12.517Z,7.23
2019-04-07T08:27:45.696Z,8.27
2019-04-07T08:29:18.038Z,9.37
2019-04-07T08:30:51.275Z,7.77
2019-04-07T08:32:25.944Z,7.60
2019-04-07T08:33:59.692Z,8.27
2019-04-07T08:35:35.761Z,9.23
2019-04-07T08:37:06.073Z,9.37
2019-04-07T08:38:38.417Z,8.27
2019-04-07T08:40:10.916Z,8.33
2019-04-07T08:41:43.559Z,8.33
2019-04-07T08:43:19.621Z,8.70
2019-04-07T08:44:50.831Z,8.83
2019-04-07T08:46:23.404Z,10.90
2019-04-07T08:47:58.109Z,10.10
2019-04-07T08:49:32.742Z,13.23
2019-04-07T08:51:04.856Z,9.13
2019-04-07T08:52:40.747Z,8.27
2019-04-07T08:54:13.827Z,9.77
2019-04-07T08:55:47.744Z,10.03
2019-04-07T08:57:19.699Z,8.30
2019-04-07T08:58:52.201Z,9.83
2019-04-07T09:00:24.921Z,10.03
2019-04-07T09:01:58.044Z,9.70
2019-04-07T09:03:30.532Z,9.43
2019-04-07T09:05:02.941Z,12.00
2019-04-07T09:06:35.355Z,13.53
2019-04-07T09:08:07.788Z,12.03
2019-04-07T09:09:45.657Z,10.33
2019-04-07T09:11:14.635Z,11.37
2019-04-07T09:12:47.214Z,10.50
2019-04-07T09:14:20.253Z,12.27
2019-04-07T09:15:53.372Z,14.47
2019-04-07T09:17:32.202Z,11.87
2019-04-07T09:19:03.830Z,11.50
2019-04-07T09:20:34.659Z,12.50
2019-04-07T09:22:07.451Z,12.47
2019-04-07T09:23:40.462Z,12.27
2019-04-07T09:25:13.094Z,11.65
2019-04-07T09:26:45.697Z,10.70
2019-04-07T09:28:22.134Z,11.83
2019-04-07T09:29:52.340Z,11.90
2019-04-07T09:31:24.874Z,19.93
2019-04-07T09:32:57.840Z,14.50
2019-04-07T09:34:30.592Z,14.17
2019-04-07T09:36:03.560Z,13.93
2019-04-07T09:37:36.700Z,14.90
2019-04-07T09:39:09.501Z,16.30
2019-04-07T09:40:48.409Z,13.57
2019-04-07T09:42:25.679Z,16.93
2019-04-07T09:44:06.037Z,13.93
2019-04-07T09:45:46.613Z,17.27
2019-04-07T09:47:39.126Z,19.07
2019-04-07T09:49:11.890Z,16.60
2019-04-07T09:50:48.519Z,16.87
2019-04-07T09:52:28.275Z,18.80
2019-04-07T09:54:17.438Z,19.98
2019-04-07T09:55:42.287Z,19.40
2019-04-07T09:57:15.676Z,21.33
2019-04-07T09:58:48.417Z,21.30
2019-04-07T10:00:23.021Z,20.97
2019-04-07T10:01:57.079Z,21.80
2019-04-07T10:03:29.090Z,21.15
2019-04-07T10:05:01.686Z,22.07
2019-04-07T10:06:34.099Z,20.83
2019-04-07T10:08:07.204Z,19.40
2019-04-07T10:09:40.012Z,21.57
2019-04-07T10:11:14.039Z,22.43
2019-04-07T10:12:47.259Z,24.17
2019-04-07T10:14:19.706Z,27.87
2019-04-07T10:15:53.190Z,25.48
2019-04-07T10:17:26.191Z,24.97
2019-04-07T10:18:58.785Z,24.97
2019-04-07T10:20:31.514Z,28.87
2019-04-07T10:22:04.004Z,28.43
2019-04-07T10:23:36.464Z,27.10
2019-04-07T10:25:09.305Z,29.80
2019-04-07T10:26:41.893Z,32.03
2019-04-07T10:28:14.518Z,27.62
2019-04-07T10:29:47.058Z,29.15
2019-04-07T10:31:20.835Z,32.35
2019-04-07T10:32:53.499Z,30.47
2019-04-07T10:34:26.013Z,33.63
2019-04-07T10:35:58.443Z,34.03
2019-04-07T10:37:31.469Z,32.45
2019-04-07T10:39:04.637Z,28.97
2019-04-07T10:40:37.846Z,32.27
2019-04-07T10:42:11.300Z,31.68
2019-04-07T10:43:45.130Z,30.13
2019-04-07T10:45:17.791Z,28.05
2019-04-07T10:46:50.439Z,31.43
2019-04-07T10:48:24.469Z,27.90
2019-04-07T10:50:02.421Z,29.37
2019-04-07T10:51:31.891Z,28.83
2019-04-07T10:53:04.894Z,30.80
2019-04-07T10:54:38.101Z,30.60
2019-04-07T10:56:10.642Z,31.20
2019-04-07T10:57:43.626Z,34.03
2019-04-07T10:59:16.173Z,36.85
2019-04-07T11:00:50.829Z,33.30
2019-04-07T11:02:22.729Z,32.13
2019-04-07T11:03:56.391Z,34.15
2019-04-07T11:05:30.409Z,35.45
2019-04-07T11:07:03.055Z,35.28
2019-04-07T11:08:35.656Z,34.53
2019-04-07T11:10:08.151Z,31.82
2019-04-07T11:11:41.195Z,31.27
2019-04-07T11:13:14.603Z,32.67
2019-04-07T11:14:47.703Z,33.45
2019-04-07T11:16:20.523Z,32.33
2019-04-07T11:17:53.158Z,28.52
2019-04-07T11:19:28.103Z,28.92
2019-04-07T11:20:59.884Z,27.98
2019-04-07T11:22:33.776Z,26.68
2019-04-07T11:24:06.947Z,27.13
2019-04-07T11:25:41.366Z,30.97
2019-04-07T11:27:14.976Z,30.62
2019-04-07T11:28:48.046Z,30.35
2019-04-07T11:30:21.306Z,32.03
2019-04-07T11:31:54.886Z,30.90
2019-04-07T11:33:27.833Z,35.80
2019-04-07T11:35:00.564Z,32.93
2019-04-07T11:36:32.980Z,37.17
2019-04-07T11:38:05.825Z,32.13
2019-04-07T11:39:38.953Z,33.02
2019-04-07T11:41:11.483Z,32.95
2019-04-07T11:42:44.836Z,33.25
2019-04-07T11:44:19.946Z,31.70
2019-04-07T11:45:58.418Z,36.70
2019-04-07T11:47:25.723Z,36.68
2019-04-07T11:48:59.041Z,40.30
2019-04-07T11:50:32.612Z,34.03
2019-04-07T11:52:06.012Z,34.70
2019-04-07T11:53:39.606Z,35.05
2019-04-07T11:55:12.145Z,31.97
2019-04-07T11:56:44.631Z,32.30
2019-04-07T11:58:26.004Z,32.07
2019-04-07T11:59:51.308Z,27.93
2019-04-07T12:01:27.106Z,30.77
2019-04-07T12:02:59.646Z,32.70
2019-04-07T12:04:32.711Z,29.00
2019-04-07T12:06:05.267Z,30.17
2019-04-07T12:07:37.768Z,29.00
2019-04-07T12:09:10.860Z,31.20
2019-04-07T12:10:54.932Z,32.33
2019-04-07T12:12:18.217Z,36.03
2019-04-07T12:13:50.999Z,35.28
2019-04-07T12:15:26.722Z,32.45
2019-04-07T12:16:59.352Z,34.33
2019-04-07T12:18:32.146Z,34.15
2019-04-07T12:20:08.094Z,32.58
2019-04-07T12:21:40.848Z,31.25
2019-04-07T12:23:15.921Z,30.48
2019-04-07T12:24:48.039Z,30.90
2019-04-07T12:26:23.727Z,30.05
2019-04-07T12:27:56.731Z,35.48
2019-04-07T12:29:29.254Z,36.17
2019-04-07T12:31:02.127Z,33.20
2019-04-07T12:32:34.633Z,34.53
2019-04-07T12:34:14.398Z,31.37
2019-04-07T12:35:50.985Z,33.67
2019-04-07T12:37:20.696Z,38.70
2019-04-07T12:38:54.026Z,37.42
2019-04-07T12:40:26.754Z,32.03
2019-04-07T12:41:59.414Z,30.77
2019-04-07T12:43:32.799Z,32.90
2019-04-07T12:45:05.332Z,29.35
2019-04-07T12:46:37.726Z,30.05
2019-04-07T12:48:11.277Z,33.02
2019-04-07T12:49:45.715Z,32.48
2019-04-07T12:51:19.863Z,32.35
2019-04-07T12:52:52.909Z,30.10
2019-04-07T12:54:25.518Z,28.60
2019-04-07T12:56:00.473Z,28.17
2019-04-07T12:57:35.342Z,29.42
2019-04-07T12:59:06.836Z,30.77
2019-04-07T13:00:53.031Z,28.10
2019-04-07T13:02:15.499Z,29.40
2019-04-07T13:03:48.970Z,26.68
2019-04-07T13:05:24.124Z,31.07
2019-04-07T13:07:01.300Z,28.80
2019-04-07T13:08:34.928Z,28.35
2019-04-07T13:10:12.023Z,27.87
2019-04-07T13:11:49.724Z,26.75
2019-04-07T13:13:21.301Z,25.90
2019-04-07T13:14:54.657Z,28.00
2019-04-07T13:16:27.851Z,25.95
2019-04-07T13:18:04.247Z,24.85
2019-04-07T13:19:36.071Z,22.40
2019-04-07T13:21:09.007Z,22.75
2019-04-07T13:22:42.142Z,19.07
2019-04-07T13:24:28.386Z,20.90
2019-04-07T13:25:53.171Z,21.27
2019-04-07T13:27:23.270Z,21.52
2019-04-07T13:28:56.360Z,20.02
2019-04-07T13:30:28.865Z,20.02
2019-04-07T13:32:01.410Z,20.95
2019-04-07T13:33:34.836Z,20.40
2019-04-07T13:35:07.438Z,23.75
2019-04-07T13:36:39.888Z,23.02
2019-04-07T13:38:13.097Z,19.98
2019-04-07T13:39:46.416Z,19.05
2019-04-07T13:41:20.321Z,17.25
2019-04-07T13:42:56.649Z,17.50
2019-04-07T13:44:27.200Z,18.05
2019-04-07T13:45:59.673Z,18.23
2019-04-07T13:47:32.950Z,16.57
2019-04-07T13:49:05.725Z,15.55
2019-04-07T13:50:38.317Z,17.42
2019-04-07T13:52:10.754Z,15.80
2019-04-07T13:53:43.247Z,15.55
2019-04-07T13:55:16.482Z,17.15
2019-04-07T13:56:52.260Z,14.33
2019-04-07T13:58:24.111Z,14.28
2019-04-07T13:59:57.770Z,19.17
2019-04-07T14:01:32.469Z,17.65
2019-04-07T14:03:04.873Z,18.42
2019-04-07T14:04:37.551Z,17.37
2019-04-07T14:06:14.471Z,14.25
2019-04-07T14:07:44.980Z,16.90
2019-04-07T14:09:20.163Z,16.20
2019-04-07T14:10:52.859Z,17.85
2019-04-07T14:12:25.952Z,17.77
2019-04-07T14:13:59.114Z,16.35
2019-04-07T14:15:40.919Z,19.02
2019-04-07T14:17:14.071Z,13.98
2019-04-07T14:18:50.166Z,16.35
2019-04-07T14:20:21.479Z,15.48
2019-04-07T14:21:54.536Z,16.97
2019-04-07T14:23:27.581Z,14.05
2019-04-07T14:25:00.117Z,13.48
2019-04-07T14:26:33.443Z,13.03
2019-04-07T14:28:06.068Z,12.55
2019-04-07T14:29:38.427Z,15.98
2019-04-07T14:31:10.899Z,11.90
2019-04-07T14:32:45.328Z,12.03
2019-04-07T14:34:18.171Z,11.50
2019-04-07T14:35:50.774Z,12.88
2019-04-07T14:37:23.223Z,13.53
2019-04-07T14:38:56.008Z,13.30
2019-04-07T14:40:29.131Z,10.55
2019-04-07T14:42:06.157Z,13.05
2019-04-07T14:43:36.454Z,11.33
2019-04-07T14:45:09.581Z,11.22
2019-04-07T14:46:42.626Z,13.53
2019-04-07T14:48:15.098Z,10.85
2019-04-07T14:49:51.580Z,13.90
2019-04-07T14:51:23.069Z,11.88
2019-04-07T14:52:58.045Z,14.75
2019-04-07T14:54:34.673Z,13.00
2019-04-07T14:58:01.249Z,10.55
2019-04-07T14:59:34.016Z,12.68
2019-04-07T15:01:08.263Z,11.28
2019-04-07T15:02:46.625Z,11.97
2019-04-07T15:04:17.160Z,16.35
2019-04-07T15:05:50.641Z,12.25
2019-04-07T15:07:24.787Z,14.25
2019-04-07T15:08:57.160Z,14.20
2019-04-07T15:10:29.718Z,14.95
2019-04-07T15:12:17.101Z,16.93
2019-04-07T15:13:41.831Z,15.00
2019-04-07T15:15:15.969Z,16.25
2019-04-07T15:16:49.156Z,17.62
2019-04-07T15:18:24.105Z,14.63
2019-04-07T15:19:58.546Z,15.13
2019-04-07T15:21:31.894Z,15.03
2019-04-07T15:23:07.542Z,16.75
2019-04-07T15:24:58.069Z,18.02
2019-04-07T15:26:30.956Z,16.80
2019-04-07T15:28:14.252Z,21.15
2019-04-07T15:29:50.284Z,17.90
2019-04-07T15:31:27.395Z,16.37
2019-04-07T15:33:01.620Z,17.98
2019-04-07T15:34:34.352Z,18.23
2019-04-07T15:36:10.793Z,17.95
2019-04-07T15:37:44.706Z,16.80
2019-04-07T15:39:17.170Z,15.80
2019-04-07T15:40:50.564Z,15.65
2019-04-07T15:42:37.772Z,15.80
2019-04-07T15:43:58.499Z,16.87
2019-04-07T15:47:29.734Z,17.60
2019-04-07T15:49:06.695Z,18.17
2019-04-07T15:52:47.051Z,14.70
2019-04-07T15:54:30.955Z,17.10
2019-04-07T15:56:08.374Z,16.23
2019-04-07T15:59:54.300Z,19.00
2019-04-07T16:01:23.785Z,14.75
2019-04-07T16:02:56.257Z,17.40
2019-04-07T16:04:29.603Z,16.17
2019-04-07T16:06:05.697Z,16.12
2019-04-07T16:07:41.900Z,15.08
2019-04-07T16:09:30.447Z,16.65
2019-04-07T16:10:48.700Z,17.85
2019-04-07T16:12:21.873Z,16.45
2019-04-07T16:13:55.170Z,16.00
2019-04-07T16:15:31.819Z,18.10
2019-04-07T16:17:06.362Z,15.83
2019-04-07T16:18:40.887Z,15.72
2019-04-07T16:20:20.624Z,17.12
2019-04-07T16:21:49.651Z,15.25
2019-04-07T16:23:24.417Z,15.85
2019-04-07T16:24:57.261Z,15.60
2019-04-07T16:26:32.478Z,17.30
2019-04-07T16:28:09.217Z,17.12
2019-04-07T16:29:42.971Z,16.30
2019-04-07T16:31:15.574Z,15.45
2019-04-07T16:32:48.192Z,15.85
2019-04-07T16:34:22.811Z,16.32
2019-04-07T16:35:57.961Z,16.05
2019-04-07T16:37:31.064Z,15.28
2019-04-07T16:39:04.542Z,14.18
2019-04-07T16:40:41.350Z,17.25
2019-04-07T16:42:15.257Z,16.07
2019-04-07T16:43:47.886Z,16.25
2019-04-07T16:45:21.247Z,14.40
2019-04-07T16:46:56.439Z,15.18
2019-04-07T16:48:28.324Z,16.77
2019-04-07T16:50:01.073Z,16.12
2019-04-07T16:51:34.248Z,15.30
2019-04-07T16:53:08.257Z,17.02
2019-04-07T16:54:43.460Z,15.63
2019-04-07T16:56:19.292Z,20.80
2019-04-07T16:57:50.365Z,14.58
2019-04-07T16:59:23.034Z,16.70
2019-04-07T17:00:55.986Z,15.72
2019-04-07T17:02:29.500Z,15.70
2019-04-07T17:04:02.973Z,15.72
2019-04-07T17:05:36.443Z,14.18
2019-04-07T17:07:14.175Z,15.30
2019-04-07T17:08:43.408Z,14.93
2019-04-07T17:10:16.685Z,14.70
2019-04-07T17:11:49.384Z,14.78
2019-04-07T17:13:32.057Z,16.40
2019-04-07T17:14:57.779Z,14.75
2019-04-07T17:16:30.435Z,18.70
2019-04-07T17:18:02.867Z,16.00
2019-04-07T17:19:35.881Z,17.77
2019-04-07T17:21:09.481Z,16.45
2019-04-07T17:22:45.882Z,14.45
2019-04-07T17:24:17.357Z,15.35
2019-04-07T17:25:50.326Z,15.98
2019-04-07T17:27:22.998Z,16.93
2019-04-07T17:28:56.958Z,16.50
2019-04-07T17:30:30.140Z,17.50
2019-04-07T17:32:03.458Z,15.38
2019-04-07T17:33:37.171Z,14.87
2019-04-07T17:35:12.557Z,15.23
2019-04-07T17:36:48.169Z,15.78
2019-04-07T17:38:18.499Z,15.95
2019-04-07T17:39:51.438Z,17.12
2019-04-07T17:41:24.071Z,19.35
2019-04-07T17:42:56.718Z,16.57
2019-04-07T17:44:29.740Z,18.87
2019-04-07T17:46:02.606Z,15.58
2019-04-07T17:47:36.655Z,17.42
2019-04-07T17:49:09.960Z,19.00
2019-04-07T17:50:42.571Z,17.92
2019-04-07T17:52:18.601Z,16.50
2019-04-07T17:53:51.731Z,16.97
2019-04-07T17:55:26.889Z,15.32
2019-04-07T17:57:01.152Z,17.62
2019-04-07T17:58:32.386Z,15.93
2019-04-07T18:00:05.774Z,17.17
2019-04-07T18:01:38.951Z,14.58
2019-04-07T18:03:11.807Z,15.95
2019-04-07T18:04:50.078Z,18.15
2019-04-07T18:06:19.455Z,18.07
2019-04-07T18:07:52.059Z,15.80
2019-04-07T18:09:29.851Z,16.45
2019-04-07T18:11:07.585Z,17.30
2019-04-07T18:12:47.852Z,15.80
2019-04-07T18:14:12.616Z,15.95
2019-04-07T18:17:48.393Z,17.12
2019-04-07T18:19:20.783Z,18.10
2019-04-07T18:20:54.071Z,16.57
2019-04-07T18:22:27.422Z,17.97
2019-04-07T18:23:59.990Z,18.20
2019-04-07T18:25:34.347Z,14.10
2019-04-07T18:27:10.084Z,18.53
2019-04-07T18:28:43.334Z,16.83
2019-04-07T18:30:16.959Z,19.67
2019-04-07T18:31:49.387Z,17.40
2019-04-07T18:33:22.802Z,16.47
2019-04-07T18:34:58.394Z,17.07
2019-04-07T18:36:29.596Z,15.63
2019-04-07T18:38:02.238Z,18.93
2019-04-07T18:39:35.227Z,17.25
2019-04-07T18:41:10.621Z,16.33
2019-04-07T18:47:16.669Z,18.07
2019-04-07T18:48:09.327Z,17.93
2019-04-07T18:49:48.441Z,15.32
2019-04-07T18:51:21.780Z,17.67
2019-04-07T18:53:14.699Z,16.80
2019-04-07T18:54:47.644Z,15.07
2019-04-07T18:56:21.330Z,16.90
2019-04-07T18:57:54.450Z,18.10
2019-04-07T18:59:26.987Z,17.40
2019-04-07T19:01:04.442Z,16.82
2019-04-07T19:02:34.338Z,17.98
2019-04-07T19:04:06.896Z,16.53
2019-04-07T19:05:39.426Z,21.45
2019-04-07T19:07:15.150Z,22.67
2019-04-07T19:08:47.069Z,15.83
2019-04-07T19:10:24.193Z,16.77
2019-04-07T19:12:04.265Z,17.20
2019-04-07T19:13:28.678Z,19.07
2019-04-07T19:15:06.656Z,15.50
2019-04-07T19:16:36.181Z,18.63
2019-04-07T19:18:09.761Z,17.05
2019-04-07T19:19:42.511Z,18.77
2019-04-07T19:21:15.036Z,17.10
2019-04-07T19:22:50.683Z,17.32
2019-04-07T19:24:21.682Z,18.83
2019-04-07T19:25:54.171Z,16.42
2019-04-07T19:27:30.188Z,16.87
2019-04-07T19:29:01.590Z,16.87
2019-04-07T19:30:34.490Z,18.87
2019-04-07T19:32:07.797Z,15.93
2019-04-07T19:33:40.450Z,16.47
2019-04-07T19:35:13.186Z,16.27
2019-04-07T19:36:47.264Z,19.03
2019-04-07T19:38:22.427Z,17.80
2019-04-07T19:39:56.505Z,18.80
2019-04-07T19:41:29.345Z,17.00
2019-04-07T19:43:02.261Z,17.40
2019-04-07T19:44:39.343Z,18.48
2019-04-07T19:46:09.194Z,20.72
2019-04-07T19:47:41.764Z,18.63
2019-04-07T19:49:17.855Z,16.90
2019-04-07T19:50:50.544Z,17.37
2019-04-07T19:52:22.904Z,21.23
2019-04-07T19:53:55.864Z,20.48
2019-04-07T19:55:28.358Z,18.75
2019-04-07T19:57:00.980Z,18.03
2019-04-07T19:58:38.617Z,18.15
2019-04-07T20:00:29.448Z,21.42
2019-04-07T20:02:08.374Z,18.70
2019-04-07T20:03:41.138Z,18.48
2019-04-07T20:05:17.364Z,20.45
2019-04-07T20:06:49.454Z,22.73
2019-04-07T20:08:26.967Z,18.07
2019-04-07T20:09:59.707Z,17.93
2019-04-07T20:11:37.493Z,18.93
2019-04-07T20:13:11.674Z,21.97
2019-04-07T20:14:58.553Z,19.13
2019-04-07T20:16:21.913Z,19.67
2019-04-07T20:17:54.876Z,21.17
2019-04-07T20:19:34.905Z,22.27
2019-04-07T20:21:03.093Z,21.17
2019-04-07T20:22:42.131Z,19.10
2019-04-07T20:24:17.412Z,19.93
2019-04-07T20:25:50.736Z,23.80
2019-04-07T20:27:28.498Z,19.10
2019-04-07T20:29:05.140Z,19.53
2019-04-07T20:30:38.014Z,21.23
2019-04-07T20:32:13.115Z,21.93
2019-04-07T20:33:45.762Z,20.43
2019-04-07T20:35:18.709Z,21.23